sensor_id;sensor_type;location;lat;lon;timestamp;P1;durP1;ratioP1;P2;durP2;ratioP2
11247;SDS011;5681;53.316;13.950;2022-11-02T00:00:18;16.70;;;8.25;;
11247;SDS011;5681;53.316;13.950;2022-11-02T00:02:45;15.18;;;8.13;;
11247;SDS011;5681;53.316;13.950;2022-11-02T00:05:11;13.18;;;7.85;;
11247;SDS011;5681;53.316;13.950;2022-11-02T00:07:38;11.85;;;8.70;;
11247;SDS011;5681;53.316;13.950;2022-11-02T00:10:07;11.77;;;8.25;;
11247;SDS011;5681;53.316;13.950;2022-11-02T00:12:34;15.63;;;7.88;;
11247;SDS011;5681;53.316;13.950;2022-11-02T00:15:01;15.30;;;8.10;;
11247;SDS011;5681;53.316;13.950;2022-11-02T00:17:27;12.40;;;8.00;;
11247;SDS011;5681;53.316;13.950;2022-11-02T00:19:54;16.58;;;8.52;;
11247;SDS011;5681;53.316;13.950;2022-11-02T00:22:20;11.95;;;7.72;;
11247;SDS011;5681;53.316;13.950;2022-11-02T00:24:47;11.68;;;7.57;;
11247;SDS011;5681;53.316;13.950;2022-11-02T00:27:15;11.18;;;7.75;;
11247;SDS011;5681;53.316;13.950;2022-11-02T00:29:41;10.95;;;7.88;;
11247;SDS011;5681;53.316;13.950;2022-11-02T00:32:08;13.63;;;8.53;;
11247;SDS011;5681;53.316;13.950;2022-11-02T00:34:34;9.57;;;7.32;;
11247;SDS011;5681;53.316;13.950;2022-11-02T00:37:00;12.63;;;8.27;;
11247;SDS011;5681;53.316;13.950;2022-11-02T00:39:27;13.18;;;7.30;;
11247;SDS011;5681;53.316;13.950;2022-11-02T00:41:53;9.90;;;7.47;;
11247;SDS011;5681;53.316;13.950;2022-11-02T00:44:21;11.55;;;7.53;;
11247;SDS011;5681;53.316;13.950;2022-11-02T00:46:47;11.80;;;8.23;;
11247;SDS011;5681;53.316;13.950;2022-11-02T00:49:13;10.23;;;7.50;;
11247;SDS011;5681;53.316;13.950;2022-11-02T00:51:40;15.20;;;7.87;;
11247;SDS011;5681;53.316;13.950;2022-11-02T00:54:07;7.68;;;6.88;;
11247;SDS011;5681;53.316;13.950;2022-11-02T00:56:33;13.63;;;8.25;;
11247;SDS011;5681;53.316;13.950;2022-11-02T00:58:59;11.50;;;7.72;;
11247;SDS011;5681;53.316;13.950;2022-11-02T01:01:27;10.27;;;8.10;;
11247;SDS011;5681;53.316;13.950;2022-11-02T01:03:54;11.55;;;7.75;;
11247;SDS011;5681;53.316;13.950;2022-11-02T01:06:21;12.53;;;8.03;;
11247;SDS011;5681;53.316;13.950;2022-11-02T01:08:47;11.65;;;8.27;;
11247;SDS011;5681;53.316;13.950;2022-11-02T01:11:14;16.53;;;8.80;;
11247;SDS011;5681;53.316;13.950;2022-11-02T01:13:42;15.10;;;8.60;;
11247;SDS011;5681;53.316;13.950;2022-11-02T01:16:09;16.37;;;8.83;;
11247;SDS011;5681;53.316;13.950;2022-11-02T01:18:37;11.53;;;7.43;;
11247;SDS011;5681;53.316;13.950;2022-11-02T01:21:04;13.63;;;7.77;;
11247;SDS011;5681;53.316;13.950;2022-11-02T01:23:31;13.13;;;7.73;;
11247;SDS011;5681;53.316;13.950;2022-11-02T01:26:00;13.15;;;7.97;;
11247;SDS011;5681;53.316;13.950;2022-11-02T01:28:28;13.23;;;7.43;;
11247;SDS011;5681;53.316;13.950;2022-11-02T01:30:54;11.63;;;7.60;;
11247;SDS011;5681;53.316;13.950;2022-11-02T01:33:22;13.73;;;6.97;;
11247;SDS011;5681;53.316;13.950;2022-11-02T01:35:49;9.07;;;7.20;;
11247;SDS011;5681;53.316;13.950;2022-11-02T01:38:16;11.97;;;8.13;;
11247;SDS011;5681;53.316;13.950;2022-11-02T01:40:42;12.93;;;7.63;;
11247;SDS011;5681;53.316;13.950;2022-11-02T01:43:19;10.30;;;7.47;;
11247;SDS011;5681;53.316;13.950;2022-11-02T01:45:46;10.47;;;7.20;;
11247;SDS011;5681;53.316;13.950;2022-11-02T01:48:13;11.10;;;7.50;;
11247;SDS011;5681;53.316;13.950;2022-11-02T01:50:40;11.07;;;7.23;;
11247;SDS011;5681;53.316;13.950;2022-11-02T01:53:08;11.03;;;6.93;;
11247;SDS011;5681;53.316;13.950;2022-11-02T01:55:34;16.33;;;7.22;;
11247;SDS011;5681;53.316;13.950;2022-11-02T01:58:02;13.30;;;7.73;;
11247;SDS011;5681;53.316;13.950;2022-11-02T02:00:31;9.87;;;6.83;;
11247;SDS011;5681;53.316;13.950;2022-11-02T02:03:00;11.73;;;7.70;;
11247;SDS011;5681;53.316;13.950;2022-11-02T02:05:29;9.77;;;6.97;;
11247;SDS011;5681;53.316;13.950;2022-11-02T02:07:57;11.97;;;7.37;;
11247;SDS011;5681;53.316;13.950;2022-11-02T02:10:25;13.20;;;7.17;;
11247;SDS011;5681;53.316;13.950;2022-11-02T02:12:52;10.30;;;7.50;;
11247;SDS011;5681;53.316;13.950;2022-11-02T02:15:18;12.10;;;7.50;;
11247;SDS011;5681;53.316;13.950;2022-11-02T02:17:48;14.87;;;7.43;;
11247;SDS011;5681;53.316;13.950;2022-11-02T02:20:19;11.10;;;7.13;;
11247;SDS011;5681;53.316;13.950;2022-11-02T02:23:12;13.80;;;7.20;;
11247;SDS011;5681;53.316;13.950;2022-11-02T02:29:00;11.17;;;7.57;;
11247;SDS011;5681;53.316;13.950;2022-11-02T02:31:30;11.50;;;7.90;;
11247;SDS011;5681;53.316;13.950;2022-11-02T02:34:00;12.88;;;7.50;;
11247;SDS011;5681;53.316;13.950;2022-11-02T02:36:30;9.33;;;7.10;;
11247;SDS011;5681;53.316;13.950;2022-11-02T02:38:59;11.27;;;7.75;;
11247;SDS011;5681;53.316;13.950;2022-11-02T02:41:30;12.13;;;7.40;;
11247;SDS011;5681;53.316;13.950;2022-11-02T02:44:03;13.57;;;7.60;;
11247;SDS011;5681;53.316;13.950;2022-11-02T02:46:31;14.10;;;8.00;;
11247;SDS011;5681;53.316;13.950;2022-11-02T02:49:01;12.40;;;7.13;;
11247;SDS011;5681;53.316;13.950;2022-11-02T02:51:29;12.33;;;7.50;;
11247;SDS011;5681;53.316;13.950;2022-11-02T02:53:57;14.17;;;7.97;;
11247;SDS011;5681;53.316;13.950;2022-11-02T02:56:25;12.97;;;7.70;;
11247;SDS011;5681;53.316;13.950;2022-11-02T02:58:55;10.23;;;6.77;;
11247;SDS011;5681;53.316;13.950;2022-11-02T03:01:24;13.63;;;7.30;;
11247;SDS011;5681;53.316;13.950;2022-11-02T03:03:52;12.80;;;7.70;;
11247;SDS011;5681;53.316;13.950;2022-11-02T03:06:19;12.93;;;7.90;;
11247;SDS011;5681;53.316;13.950;2022-11-02T03:08:52;12.25;;;7.65;;
11247;SDS011;5681;53.316;13.950;2022-11-02T03:11:28;10.50;;;7.90;;
11247;SDS011;5681;53.316;13.950;2022-11-02T03:16:45;10.60;;;8.13;;
11247;SDS011;5681;53.316;13.950;2022-11-02T03:19:22;11.03;;;7.80;;
11247;SDS011;5681;53.316;13.950;2022-11-02T03:21:53;12.63;;;8.40;;
11247;SDS011;5681;53.316;13.950;2022-11-02T03:24:23;12.87;;;7.80;;
11247;SDS011;5681;53.316;13.950;2022-11-02T03:26:53;18.43;;;9.17;;
11247;SDS011;5681;53.316;13.950;2022-11-02T03:29:27;14.17;;;8.80;;
11247;SDS011;5681;53.316;13.950;2022-11-02T03:32:02;12.00;;;9.73;;
11247;SDS011;5681;53.316;13.950;2022-11-02T03:34:33;16.47;;;9.67;;
11247;SDS011;5681;53.316;13.950;2022-11-02T03:37:12;15.33;;;9.63;;
11247;SDS011;5681;53.316;13.950;2022-11-02T03:39:43;14.97;;;9.83;;
11247;SDS011;5681;53.316;13.950;2022-11-02T03:42:12;16.57;;;9.47;;
11247;SDS011;5681;53.316;13.950;2022-11-02T03:44:40;11.80;;;9.73;;
11247;SDS011;5681;53.316;13.950;2022-11-02T03:47:09;12.63;;;9.77;;
11247;SDS011;5681;53.316;13.950;2022-11-02T03:49:36;12.80;;;9.80;;
11247;SDS011;5681;53.316;13.950;2022-11-02T03:52:06;13.90;;;10.33;;
11247;SDS011;5681;53.316;13.950;2022-11-02T03:54:40;16.53;;;10.20;;
11247;SDS011;5681;53.316;13.950;2022-11-02T03:57:11;17.20;;;10.13;;
11247;SDS011;5681;53.316;13.950;2022-11-02T03:59:41;16.90;;;10.03;;
11247;SDS011;5681;53.316;13.950;2022-11-02T04:02:09;13.27;;;9.50;;
11247;SDS011;5681;53.316;13.950;2022-11-02T04:04:45;12.73;;;10.00;;
11247;SDS011;5681;53.316;13.950;2022-11-02T04:07:13;12.87;;;10.07;;
11247;SDS011;5681;53.316;13.950;2022-11-02T04:09:40;13.00;;;9.60;;
11247;SDS011;5681;53.316;13.950;2022-11-02T04:12:07;11.40;;;9.90;;
11247;SDS011;5681;53.316;13.950;2022-11-02T04:14:51;13.37;;;9.73;;
11247;SDS011;5681;53.316;13.950;2022-11-02T04:17:19;12.40;;;9.40;;
11247;SDS011;5681;53.316;13.950;2022-11-02T04:20:03;13.20;;;9.87;;
11247;SDS011;5681;53.316;13.950;2022-11-02T04:22:30;15.13;;;9.60;;
11247;SDS011;5681;53.316;13.950;2022-11-02T04:25:14;11.50;;;9.30;;
11247;SDS011;5681;53.316;13.950;2022-11-02T04:27:43;11.80;;;9.63;;
11247;SDS011;5681;53.316;13.950;2022-11-02T04:30:11;14.57;;;9.93;;
11247;SDS011;5681;53.316;13.950;2022-11-02T04:32:40;15.13;;;9.43;;
11247;SDS011;5681;53.316;13.950;2022-11-02T04:35:24;15.63;;;10.80;;
11247;SDS011;5681;53.316;13.950;2022-11-02T04:37:51;18.37;;;10.47;;
11247;SDS011;5681;53.316;13.950;2022-11-02T04:40:35;15.70;;;9.53;;
11247;SDS011;5681;53.316;13.950;2022-11-02T04:43:01;15.73;;;9.67;;
11247;SDS011;5681;53.316;13.950;2022-11-02T04:45:28;15.07;;;8.77;;
11247;SDS011;5681;53.316;13.950;2022-11-02T04:47:59;14.60;;;8.83;;
11247;SDS011;5681;53.316;13.950;2022-11-02T04:50:25;12.80;;;9.80;;
11247;SDS011;5681;53.316;13.950;2022-11-02T04:52:56;12.33;;;8.53;;
11247;SDS011;5681;53.316;13.950;2022-11-02T04:55:22;16.60;;;8.07;;
11247;SDS011;5681;53.316;13.950;2022-11-02T04:57:49;13.43;;;8.47;;
11247;SDS011;5681;53.316;13.950;2022-11-02T05:00:15;15.17;;;8.47;;
11247;SDS011;5681;53.316;13.950;2022-11-02T05:02:43;13.47;;;7.63;;
11247;SDS011;5681;53.316;13.950;2022-11-02T05:05:12;13.80;;;8.20;;
11247;SDS011;5681;53.316;13.950;2022-11-02T05:07:39;8.10;;;7.17;;
11247;SDS011;5681;53.316;13.950;2022-11-02T05:10:06;18.17;;;9.13;;
11247;SDS011;5681;53.316;13.950;2022-11-02T05:12:32;9.93;;;6.83;;
11247;SDS011;5681;53.316;13.950;2022-11-02T05:14:59;13.10;;;7.73;;
11247;SDS011;5681;53.316;13.950;2022-11-02T05:17:25;17.03;;;7.17;;
11247;SDS011;5681;53.316;13.950;2022-11-02T05:19:51;11.67;;;8.47;;
11247;SDS011;5681;53.316;13.950;2022-11-02T05:22:19;12.17;;;7.07;;
11247;SDS011;5681;53.316;13.950;2022-11-02T05:24:46;10.90;;;7.40;;
11247;SDS011;5681;53.316;13.950;2022-11-02T05:27:13;11.43;;;7.07;;
11247;SDS011;5681;53.316;13.950;2022-11-02T05:29:39;10.47;;;7.33;;
11247;SDS011;5681;53.316;13.950;2022-11-02T05:32:05;9.00;;;6.40;;
11247;SDS011;5681;53.316;13.950;2022-11-02T05:34:32;15.60;;;6.90;;
11247;SDS011;5681;53.316;13.950;2022-11-02T05:36:58;9.63;;;6.27;;
11247;SDS011;5681;53.316;13.950;2022-11-02T05:39:26;7.00;;;6.10;;
11247;SDS011;5681;53.316;13.950;2022-11-02T05:41:52;10.20;;;6.30;;
11247;SDS011;5681;53.316;13.950;2022-11-02T05:44:19;8.37;;;6.50;;
11247;SDS011;5681;53.316;13.950;2022-11-02T05:46:45;10.03;;;6.30;;
11247;SDS011;5681;53.316;13.950;2022-11-02T05:49:12;9.03;;;6.23;;
11247;SDS011;5681;53.316;13.950;2022-11-02T05:51:38;10.87;;;6.13;;
11247;SDS011;5681;53.316;13.950;2022-11-02T05:54:04;10.63;;;6.40;;
11247;SDS011;5681;53.316;13.950;2022-11-02T05:56:32;8.67;;;6.03;;
11247;SDS011;5681;53.316;13.950;2022-11-02T05:58:59;9.97;;;5.60;;
11247;SDS011;5681;53.316;13.950;2022-11-02T06:01:25;15.93;;;6.73;;
11247;SDS011;5681;53.316;13.950;2022-11-02T06:03:52;12.87;;;6.70;;
11247;SDS011;5681;53.316;13.950;2022-11-02T06:06:18;10.50;;;6.00;;
11247;SDS011;5681;53.316;13.950;2022-11-02T06:08:44;12.83;;;5.70;;
11247;SDS011;5681;53.316;13.950;2022-11-02T06:11:11;9.80;;;5.47;;
11247;SDS011;5681;53.316;13.950;2022-11-02T06:13:40;9.67;;;5.60;;
11247;SDS011;5681;53.316;13.950;2022-11-02T06:16:07;15.50;;;6.30;;
11247;SDS011;5681;53.316;13.950;2022-11-02T06:18:34;8.87;;;5.87;;
11247;SDS011;5681;53.316;13.950;2022-11-02T06:21:01;8.97;;;5.73;;
11247;SDS011;5681;53.316;13.950;2022-11-02T06:23:27;11.37;;;6.40;;
11247;SDS011;5681;53.316;13.950;2022-11-02T06:25:55;9.27;;;5.70;;
11247;SDS011;5681;53.316;13.950;2022-11-02T06:28:22;12.07;;;5.77;;
11247;SDS011;5681;53.316;13.950;2022-11-02T06:30:50;11.40;;;5.87;;
11247;SDS011;5681;53.316;13.950;2022-11-02T06:33:17;10.20;;;5.07;;
11247;SDS011;5681;53.316;13.950;2022-11-02T06:35:44;12.10;;;5.60;;
11247;SDS011;5681;53.316;13.950;2022-11-02T06:38:11;10.10;;;5.20;;
11247;SDS011;5681;53.316;13.950;2022-11-02T06:40:38;12.93;;;5.37;;
11247;SDS011;5681;53.316;13.950;2022-11-02T06:43:04;13.57;;;5.67;;
11247;SDS011;5681;53.316;13.950;2022-11-02T06:45:30;10.77;;;4.67;;
11247;SDS011;5681;53.316;13.950;2022-11-02T06:47:58;6.13;;;4.57;;
11247;SDS011;5681;53.316;13.950;2022-11-02T06:50:24;10.07;;;4.80;;
11247;SDS011;5681;53.316;13.950;2022-11-02T06:52:51;10.60;;;4.90;;
11247;SDS011;5681;53.316;13.950;2022-11-02T06:55:18;11.47;;;5.10;;
11247;SDS011;5681;53.316;13.950;2022-11-02T06:57:44;10.37;;;4.63;;
11247;SDS011;5681;53.316;13.950;2022-11-02T07:00:11;13.27;;;4.60;;
11247;SDS011;5681;53.316;13.950;2022-11-02T07:02:41;9.47;;;4.70;;
11247;SDS011;5681;53.316;13.950;2022-11-02T07:05:09;7.97;;;4.80;;
11247;SDS011;5681;53.316;13.950;2022-11-02T07:07:36;13.23;;;4.40;;
11247;SDS011;5681;53.316;13.950;2022-11-02T07:10:02;8.33;;;4.50;;
11247;SDS011;5681;53.316;13.950;2022-11-02T07:12:30;13.03;;;4.70;;
11247;SDS011;5681;53.316;13.950;2022-11-02T07:14:57;8.53;;;4.30;;
11247;SDS011;5681;53.316;13.950;2022-11-02T07:17:23;9.47;;;4.50;;
11247;SDS011;5681;53.316;13.950;2022-11-02T07:19:50;11.40;;;4.33;;
11247;SDS011;5681;53.316;13.950;2022-11-02T07:22:17;8.97;;;4.13;;
11247;SDS011;5681;53.316;13.950;2022-11-02T07:24:44;9.77;;;3.87;;
11247;SDS011;5681;53.316;13.950;2022-11-02T07:27:10;7.17;;;4.03;;
11247;SDS011;5681;53.316;13.950;2022-11-02T07:29:36;11.03;;;4.07;;
11247;SDS011;5681;53.316;13.950;2022-11-02T07:32:03;9.13;;;4.10;;
11247;SDS011;5681;53.316;13.950;2022-11-02T07:34:31;10.73;;;4.30;;
11247;SDS011;5681;53.316;13.950;2022-11-02T07:36:58;9.03;;;3.60;;
11247;SDS011;5681;53.316;13.950;2022-11-02T07:39:25;11.40;;;3.80;;
11247;SDS011;5681;53.316;13.950;2022-11-02T07:41:52;12.60;;;4.77;;
11247;SDS011;5681;53.316;13.950;2022-11-02T07:44:18;9.37;;;3.60;;
11247;SDS011;5681;53.316;13.950;2022-11-02T07:46:45;11.23;;;3.77;;
11247;SDS011;5681;53.316;13.950;2022-11-02T07:49:11;9.80;;;3.80;;
11247;SDS011;5681;53.316;13.950;2022-11-02T07:51:37;9.47;;;3.20;;
11247;SDS011;5681;53.316;13.950;2022-11-02T07:54:04;9.43;;;3.50;;
11247;SDS011;5681;53.316;13.950;2022-11-02T07:56:32;7.73;;;3.23;;
11247;SDS011;5681;53.316;13.950;2022-11-02T07:58:58;10.47;;;3.40;;
11247;SDS011;5681;53.316;13.950;2022-11-02T08:01:24;9.67;;;3.47;;
11247;SDS011;5681;53.316;13.950;2022-11-02T08:03:50;20.90;;;7.30;;
11247;SDS011;5681;53.316;13.950;2022-11-02T08:06:18;14.70;;;3.90;;
11247;SDS011;5681;53.316;13.950;2022-11-02T08:08:45;10.03;;;3.27;;
11247;SDS011;5681;53.316;13.950;2022-11-02T08:11:11;10.93;;;3.10;;
11247;SDS011;5681;53.316;13.950;2022-11-02T08:13:39;10.60;;;3.90;;
11247;SDS011;5681;53.316;13.950;2022-11-02T08:16:05;11.38;;;3.10;;
11247;SDS011;5681;53.316;13.950;2022-11-02T08:18:32;9.77;;;3.08;;
11247;SDS011;5681;53.316;13.950;2022-11-02T08:20:58;12.00;;;3.35;;
11247;SDS011;5681;53.316;13.950;2022-11-02T08:23:25;9.02;;;2.92;;
11247;SDS011;5681;53.316;13.950;2022-11-02T08:25:52;13.63;;;3.17;;
11247;SDS011;5681;53.316;13.950;2022-11-02T08:28:20;10.73;;;3.25;;
11247;SDS011;5681;53.316;13.950;2022-11-02T08:30:48;9.68;;;2.97;;
11247;SDS011;5681;53.316;13.950;2022-11-02T08:33:15;13.10;;;3.10;;
11247;SDS011;5681;53.316;13.950;2022-11-02T08:35:43;12.73;;;2.80;;
11247;SDS011;5681;53.316;13.950;2022-11-02T08:38:10;15.15;;;3.20;;
11247;SDS011;5681;53.316;13.950;2022-11-02T08:40:36;10.27;;;2.85;;
11247;SDS011;5681;53.316;13.950;2022-11-02T08:43:03;12.50;;;2.70;;
11247;SDS011;5681;53.316;13.950;2022-11-02T08:45:31;13.32;;;2.88;;
11247;SDS011;5681;53.316;13.950;2022-11-02T08:48:00;9.82;;;2.65;;
11247;SDS011;5681;53.316;13.950;2022-11-02T08:50:27;9.18;;;3.08;;
11247;SDS011;5681;53.316;13.950;2022-11-02T08:52:54;11.18;;;4.10;;
11247;SDS011;5681;53.316;13.950;2022-11-02T08:55:21;9.77;;;3.03;;
11247;SDS011;5681;53.316;13.950;2022-11-02T08:57:48;16.02;;;3.50;;
11247;SDS011;5681;53.316;13.950;2022-11-02T09:00:15;9.50;;;2.25;;
11247;SDS011;5681;53.316;13.950;2022-11-02T09:02:42;12.15;;;3.13;;
11247;SDS011;5681;53.316;13.950;2022-11-02T09:05:10;14.07;;;3.03;;
11247;SDS011;5681;53.316;13.950;2022-11-02T09:07:37;10.73;;;2.90;;
11247;SDS011;5681;53.316;13.950;2022-11-02T09:10:03;8.75;;;2.50;;
11247;SDS011;5681;53.316;13.950;2022-11-02T09:12:31;10.18;;;2.42;;
11247;SDS011;5681;53.316;13.950;2022-11-02T09:14:58;9.85;;;2.97;;
11247;SDS011;5681;53.316;13.950;2022-11-02T09:17:24;10.75;;;2.58;;
11247;SDS011;5681;53.316;13.950;2022-11-02T09:19:50;13.68;;;2.90;;
11247;SDS011;5681;53.316;13.950;2022-11-02T09:22:18;19.70;;;3.47;;
11247;SDS011;5681;53.316;13.950;2022-11-02T09:24:44;9.88;;;2.70;;
11247;SDS011;5681;53.316;13.950;2022-11-02T09:27:11;9.60;;;2.70;;
11247;SDS011;5681;53.316;13.950;2022-11-02T09:29:37;9.73;;;2.72;;
11247;SDS011;5681;53.316;13.950;2022-11-02T09:32:03;13.65;;;2.78;;
11247;SDS011;5681;53.316;13.950;2022-11-02T09:34:30;12.82;;;3.03;;
11247;SDS011;5681;53.316;13.950;2022-11-02T09:36:57;14.43;;;3.20;;
11247;SDS011;5681;53.316;13.950;2022-11-02T09:39:24;12.88;;;3.47;;
11247;SDS011;5681;53.316;13.950;2022-11-02T09:41:57;12.13;;;2.85;;
11247;SDS011;5681;53.316;13.950;2022-11-02T09:44:27;11.55;;;4.65;;
11247;SDS011;5681;53.316;13.950;2022-11-02T09:46:57;16.00;;;6.28;;
11247;SDS011;5681;53.316;13.950;2022-11-02T09:49:23;13.02;;;4.20;;
11247;SDS011;5681;53.316;13.950;2022-11-02T09:51:51;9.27;;;2.90;;
11247;SDS011;5681;53.316;13.950;2022-11-02T09:54:19;7.15;;;2.72;;
11247;SDS011;5681;53.316;13.950;2022-11-02T09:56:49;12.65;;;2.80;;
11247;SDS011;5681;53.316;13.950;2022-11-02T09:59:17;10.82;;;2.50;;
11247;SDS011;5681;53.316;13.950;2022-11-02T10:01:47;12.52;;;3.22;;
11247;SDS011;5681;53.316;13.950;2022-11-02T10:07:09;12.77;;;2.83;;
11247;SDS011;5681;53.316;13.950;2022-11-02T10:09:42;13.35;;;2.45;;
11247;SDS011;5681;53.316;13.950;2022-11-02T10:12:13;13.10;;;3.53;;
11247;SDS011;5681;53.316;13.950;2022-11-02T10:14:42;14.85;;;2.90;;
11247;SDS011;5681;53.316;13.950;2022-11-02T10:17:14;13.38;;;2.88;;
11247;SDS011;5681;53.316;13.950;2022-11-02T10:19:45;9.20;;;2.92;;
11247;SDS011;5681;53.316;13.950;2022-11-02T10:22:14;16.20;;;3.10;;
11247;SDS011;5681;53.316;13.950;2022-11-02T10:24:42;7.97;;;2.25;;
11247;SDS011;5681;53.316;13.950;2022-11-02T10:27:14;13.07;;;2.72;;
11247;SDS011;5681;53.316;13.950;2022-11-02T10:29:44;12.48;;;2.90;;
11247;SDS011;5681;53.316;13.950;2022-11-02T10:32:13;12.82;;;3.05;;
11247;SDS011;5681;53.316;13.950;2022-11-02T10:34:40;14.52;;;3.15;;
11247;SDS011;5681;53.316;13.950;2022-11-02T10:37:30;10.95;;;3.10;;
11247;SDS011;5681;53.316;13.950;2022-11-02T10:40:04;15.20;;;6.00;;
11247;SDS011;5681;53.316;13.950;2022-11-02T10:45:42;8.82;;;3.08;;
11247;SDS011;5681;53.316;13.950;2022-11-02T10:48:16;10.75;;;2.92;;
11247;SDS011;5681;53.316;13.950;2022-11-02T10:50:52;11.38;;;3.00;;
11247;SDS011;5681;53.316;13.950;2022-11-02T10:53:24;10.20;;;2.63;;
11247;SDS011;5681;53.316;13.950;2022-11-02T10:55:53;7.10;;;2.47;;
11247;SDS011;5681;53.316;13.950;2022-11-02T10:58:23;11.13;;;2.90;;
11247;SDS011;5681;53.316;13.950;2022-11-02T11:01:01;14.73;;;2.72;;
11247;SDS011;5681;53.316;13.950;2022-11-02T11:03:29;8.40;;;2.42;;
11247;SDS011;5681;53.316;13.950;2022-11-02T11:05:57;11.60;;;3.00;;
11247;SDS011;5681;53.316;13.950;2022-11-02T11:08:26;11.00;;;3.17;;
11247;SDS011;5681;53.316;13.950;2022-11-02T11:10:54;18.02;;;2.75;;
11247;SDS011;5681;53.316;13.950;2022-11-02T11:13:21;17.02;;;2.90;;
11247;SDS011;5681;53.316;13.950;2022-11-02T11:18:17;11.20;;;2.50;;
11247;SDS011;5681;53.316;13.950;2022-11-02T11:20:45;9.63;;;2.90;;
11247;SDS011;5681;53.316;13.950;2022-11-02T11:23:17;13.02;;;2.50;;
11247;SDS011;5681;53.316;13.950;2022-11-02T11:25:55;8.95;;;2.42;;
11247;SDS011;5681;53.316;13.950;2022-11-02T11:28:24;9.70;;;2.75;;
11247;SDS011;5681;53.316;13.950;2022-11-02T11:31:07;9.27;;;2.35;;
11247;SDS011;5681;53.316;13.950;2022-11-02T11:33:46;11.38;;;2.60;;
11247;SDS011;5681;53.316;13.950;2022-11-02T11:36:21;12.40;;;2.78;;
11247;SDS011;5681;53.316;13.950;2022-11-02T11:38:49;8.55;;;2.55;;
11247;SDS011;5681;53.316;13.950;2022-11-02T11:41:16;10.10;;;2.65;;
11247;SDS011;5681;53.316;13.950;2022-11-02T11:43:43;9.40;;;2.47;;
11247;SDS011;5681;53.316;13.950;2022-11-02T11:46:12;8.57;;;2.30;;
11247;SDS011;5681;53.316;13.950;2022-11-02T11:48:39;11.05;;;2.70;;
11247;SDS011;5681;53.316;13.950;2022-11-02T11:51:23;9.27;;;2.40;;
11247;SDS011;5681;53.316;13.950;2022-11-02T11:54:04;8.25;;;2.33;;
11247;SDS011;5681;53.316;13.950;2022-11-02T11:56:32;10.95;;;2.53;;
11247;SDS011;5681;53.316;13.950;2022-11-02T11:58:58;13.52;;;2.33;;
11247;SDS011;5681;53.316;13.950;2022-11-02T12:01:31;8.95;;;2.55;;
11247;SDS011;5681;53.316;13.950;2022-11-02T12:04:03;14.20;;;3.00;;
11247;SDS011;5681;53.316;13.950;2022-11-02T12:06:31;13.10;;;3.35;;
11247;SDS011;5681;53.316;13.950;2022-11-02T12:09:04;6.95;;;2.25;;
11247;SDS011;5681;53.316;13.950;2022-11-02T12:11:35;8.90;;;2.40;;
11247;SDS011;5681;53.316;13.950;2022-11-02T12:14:09;10.38;;;2.80;;
11247;SDS011;5681;53.316;13.950;2022-11-02T12:16:50;11.30;;;2.40;;
11247;SDS011;5681;53.316;13.950;2022-11-02T12:19:42;10.15;;;2.60;;
11247;SDS011;5681;53.316;13.950;2022-11-02T12:22:18;12.85;;;2.30;;
11247;SDS011;5681;53.316;13.950;2022-11-02T12:27:33;7.53;;;2.13;;
11247;SDS011;5681;53.316;13.950;2022-11-02T12:30:14;7.80;;;1.88;;
11247;SDS011;5681;53.316;13.950;2022-11-02T12:32:47;8.23;;;2.50;;
11247;SDS011;5681;53.316;13.950;2022-11-02T12:35:32;11.80;;;2.53;;
11247;SDS011;5681;53.316;13.950;2022-11-02T12:38:09;9.23;;;2.92;;
11247;SDS011;5681;53.316;13.950;2022-11-02T12:40:44;8.82;;;2.72;;
11247;SDS011;5681;53.316;13.950;2022-11-02T12:43:20;7.15;;;3.33;;
11247;SDS011;5681;53.316;13.950;2022-11-02T12:45:55;8.07;;;2.05;;
11247;SDS011;5681;53.316;13.950;2022-11-02T12:48:28;12.55;;;4.13;;
11247;SDS011;5681;53.316;13.950;2022-11-02T12:51:01;10.88;;;3.70;;
11247;SDS011;5681;53.316;13.950;2022-11-02T12:53:33;9.85;;;4.75;;
11247;SDS011;5681;53.316;13.950;2022-11-02T12:56:06;13.10;;;2.53;;
11247;SDS011;5681;53.316;13.950;2022-11-02T12:58:37;10.18;;;2.90;;
11247;SDS011;5681;53.316;13.950;2022-11-02T13:01:06;10.48;;;2.88;;
11247;SDS011;5681;53.316;13.950;2022-11-02T13:03:37;9.40;;;2.40;;
11247;SDS011;5681;53.316;13.950;2022-11-02T13:06:11;11.48;;;2.83;;
11247;SDS011;5681;53.316;13.950;2022-11-02T13:08:41;9.02;;;3.25;;
11247;SDS011;5681;53.316;13.950;2022-11-02T13:11:11;12.73;;;2.40;;
11247;SDS011;5681;53.316;13.950;2022-11-02T13:13:41;16.20;;;3.72;;
11247;SDS011;5681;53.316;13.950;2022-11-02T13:16:10;11.18;;;4.18;;
11247;SDS011;5681;53.316;13.950;2022-11-02T13:18:42;11.57;;;3.50;;
11247;SDS011;5681;53.316;13.950;2022-11-02T13:21:11;10.57;;;2.72;;
11247;SDS011;5681;53.316;13.950;2022-11-02T13:23:41;10.85;;;2.55;;
11247;SDS011;5681;53.316;13.950;2022-11-02T13:26:10;10.48;;;2.63;;
11247;SDS011;5681;53.316;13.950;2022-11-02T13:28:41;10.02;;;2.63;;
11247;SDS011;5681;53.316;13.950;2022-11-02T13:31:10;14.98;;;3.00;;
11247;SDS011;5681;53.316;13.950;2022-11-02T13:33:42;8.85;;;2.50;;
11247;SDS011;5681;53.316;13.950;2022-11-02T13:36:10;9.93;;;2.30;;
11247;SDS011;5681;53.316;13.950;2022-11-02T13:38:38;6.35;;;2.10;;
11247;SDS011;5681;53.316;13.950;2022-11-02T13:41:09;8.82;;;2.60;;
11247;SDS011;5681;53.316;13.950;2022-11-02T13:43:47;10.32;;;2.28;;
11247;SDS011;5681;53.316;13.950;2022-11-02T13:46:28;12.07;;;4.07;;
11247;SDS011;5681;53.316;13.950;2022-11-02T13:49:03;7.63;;;2.45;;
11247;SDS011;5681;53.316;13.950;2022-11-02T13:51:33;10.18;;;2.42;;
11247;SDS011;5681;53.316;13.950;2022-11-02T13:54:02;5.47;;;2.05;;
11247;SDS011;5681;53.316;13.950;2022-11-02T13:56:30;7.38;;;2.08;;
11247;SDS011;5681;53.316;13.950;2022-11-02T13:59:01;5.47;;;2.28;;
11247;SDS011;5681;53.316;13.950;2022-11-02T14:01:30;6.80;;;2.00;;
11247;SDS011;5681;53.316;13.950;2022-11-02T14:04:00;10.20;;;2.05;;
11247;SDS011;5681;53.316;13.950;2022-11-02T14:06:31;6.25;;;1.90;;
11247;SDS011;5681;53.316;13.950;2022-11-02T14:08:59;6.28;;;1.92;;
11247;SDS011;5681;53.316;13.950;2022-11-02T14:14:22;6.50;;;2.33;;
11247;SDS011;5681;53.316;13.950;2022-11-02T14:16:56;9.98;;;2.22;;
11247;SDS011;5681;53.316;13.950;2022-11-02T14:19:28;8.55;;;2.38;;
11247;SDS011;5681;53.316;13.950;2022-11-02T14:24:51;8.80;;;2.38;;
11247;SDS011;5681;53.316;13.950;2022-11-02T14:27:27;9.98;;;2.58;;
11247;SDS011;5681;53.316;13.950;2022-11-02T14:29:54;7.53;;;2.22;;
11247;SDS011;5681;53.316;13.950;2022-11-02T14:32:21;8.70;;;2.55;;
11247;SDS011;5681;53.316;13.950;2022-11-02T14:35:03;9.27;;;2.70;;
11247;SDS011;5681;53.316;13.950;2022-11-02T14:37:43;11.73;;;2.10;;
11247;SDS011;5681;53.316;13.950;2022-11-02T14:40:21;7.40;;;2.58;;
11247;SDS011;5681;53.316;13.950;2022-11-02T14:45:52;9.90;;;2.20;;
11247;SDS011;5681;53.316;13.950;2022-11-02T14:48:27;11.00;;;3.20;;
11247;SDS011;5681;53.316;13.950;2022-11-02T14:50:57;7.95;;;2.03;;
11247;SDS011;5681;53.316;13.950;2022-11-02T14:53:27;10.00;;;2.17;;
11247;SDS011;5681;53.316;13.950;2022-11-02T14:55:54;10.20;;;2.50;;
11247;SDS011;5681;53.316;13.950;2022-11-02T14:58:22;11.23;;;2.55;;
11247;SDS011;5681;53.316;13.950;2022-11-02T15:00:53;8.38;;;2.35;;
11247;SDS011;5681;53.316;13.950;2022-11-02T15:03:27;6.13;;;1.98;;
11247;SDS011;5681;53.316;13.950;2022-11-02T15:05:58;5.97;;;2.30;;
11247;SDS011;5681;53.316;13.950;2022-11-02T15:08:27;7.95;;;1.92;;
11247;SDS011;5681;53.316;13.950;2022-11-02T15:10:55;7.43;;;0.98;;
11247;SDS011;5681;53.316;13.950;2022-11-02T15:13:23;18.27;;;1.92;;
11247;SDS011;5681;53.316;13.950;2022-11-02T15:16:14;8.85;;;1.63;;